createdAt,value
2022-09-28T00:01:24.575Z,99361.75
2022-09-28T00:03:57.376Z,99362.44
2022-09-28T00:06:26.437Z,99367.91
2022-09-28T00:08:54.548Z,99369.19
2022-09-28T00:11:23.770Z,99370.28
2022-09-28T00:13:53.452Z,99371.19
2022-09-28T00:16:24.051Z,99361.94
2022-09-28T00:18:52.218Z,99361.69
2022-09-28T00:21:24.727Z,99361.94
2022-09-28T00:24:12.079Z,99357.44
2022-09-28T00:26:42.297Z,99357.69
2022-09-28T00:29:17.306Z,99364.81
2022-09-28T00:31:45.094Z,99361.28
2022-09-28T00:34:13.174Z,99350.81
2022-09-28T00:36:43.899Z,99351.03
2022-09-28T00:39:12.666Z,99358.16
2022-09-28T00:41:40.393Z,99357.34
2022-09-28T00:44:26.057Z,99348.41
2022-09-28T00:47:06.296Z,99356.00
2022-09-28T00:49:55.274Z,99360.50
2022-09-28T00:52:35.860Z,99356.00
2022-09-28T00:55:07.187Z,99347.19
2022-09-28T00:57:35.786Z,99355.69
2022-09-28T01:00:05.095Z,99348.63
2022-09-28T01:02:32.426Z,99346.84
2022-09-28T01:05:01.479Z,99347.34
2022-09-28T01:07:29.276Z,99352.59
2022-09-28T01:09:56.935Z,99359.69
2022-09-28T01:12:24.413Z,99347.44
2022-09-28T01:14:52.670Z,99339.13
2022-09-28T01:17:30.245Z,99330.56
2022-09-28T01:20:07.718Z,99334.34
2022-09-28T01:23:09.388Z,99338.44
2022-09-28T01:25:41.242Z,99332.47
2022-09-28T01:28:15.306Z,99327.47
2022-09-28T01:30:51.012Z,99328.69
2022-09-28T01:33:30.909Z,99333.16
2022-09-28T01:36:13.812Z,99347.38
2022-09-28T01:38:47.357Z,99347.88
2022-09-28T01:41:17.711Z,99355.69
2022-09-28T01:43:54.719Z,99354.25
2022-09-28T01:46:27.473Z,99354.25
2022-09-28T01:48:58.136Z,99351.94
2022-09-28T01:51:30.528Z,99351.25
2022-09-28T01:54:06.481Z,99354.53
2022-09-28T01:56:43.314Z,99362.63
2022-09-28T01:59:20.407Z,99357.72
2022-09-28T02:01:53.681Z,99354.19
2022-09-28T02:04:26.824Z,99364.13
2022-09-28T02:06:58.739Z,99355.81
2022-09-28T02:09:36.193Z,99345.84
2022-09-28T02:12:13.379Z,99340.72
2022-09-28T02:14:43.877Z,99351.47
2022-09-28T02:17:11.670Z,99359.88
2022-09-28T02:19:39.953Z,99356.41
2022-09-28T02:22:28.519Z,99355.97
2022-09-28T02:24:59.818Z,99354.38
2022-09-28T02:27:45.393Z,99353.56
2022-09-28T02:30:13.600Z,99353.44
2022-09-28T02:32:44.586Z,99350.31
2022-09-28T02:35:17.326Z,99351.88
2022-09-28T02:37:46.253Z,99347.38
2022-09-28T02:40:19.065Z,99350.19
2022-09-28T02:43:02.073Z,99343.53
2022-09-28T02:45:51.736Z,99347.13
2022-09-28T02:48:44.676Z,99345.50
2022-09-28T02:51:38.347Z,99339.06
2022-09-28T02:54:38.966Z,99333.63
2022-09-28T02:57:27.705Z,99330.72
2022-09-28T03:00:05.753Z,99351.72
2022-09-28T03:02:54.898Z,99351.00
2022-09-28T03:05:44.294Z,99356.44
2022-09-28T03:08:38.205Z,99358.09
2022-09-28T03:11:14.725Z,99361.19
2022-09-28T03:13:42.962Z,99351.56
2022-09-28T03:16:19.531Z,99341.66
2022-09-28T03:18:49.221Z,99342.38
2022-09-28T03:21:16.886Z,99340.06
2022-09-28T03:23:44.225Z,99340.47
2022-09-28T03:26:12.724Z,99341.56
2022-09-28T03:28:40.597Z,99345.50
2022-09-28T03:31:11.414Z,99344.03
2022-09-28T03:33:38.665Z,99353.44
2022-09-28T03:36:08.600Z,99338.44
2022-09-28T03:38:36.660Z,99341.38
2022-09-28T03:41:04.061Z,99338.75
2022-09-28T03:43:35.601Z,99325.72
2022-09-28T03:46:04.294Z,99325.50
2022-09-28T03:48:36.308Z,99318.38
2022-09-28T03:51:06.953Z,99329.34
2022-09-28T03:53:34.278Z,99329.56
2022-09-28T03:56:04.016Z,99331.25
2022-09-28T03:58:32.605Z,99337.66
2022-09-28T04:01:18.303Z,99328.81
2022-09-28T04:03:47.938Z,99337.22
2022-09-28T04:06:15.486Z,99338.03
2022-09-28T04:08:43.351Z,99334.94
2022-09-28T04:11:11.442Z,99334.25
2022-09-28T04:13:39.102Z,99337.88
2022-09-28T04:16:14.630Z,99331.72
2022-09-28T04:18:51.348Z,99319.41
2022-09-28T04:21:37.840Z,99322.44
2022-09-28T04:24:11.315Z,99319.56
2022-09-28T04:26:38.791Z,99319.78
2022-09-28T04:29:19.411Z,99327.38
2022-09-28T04:31:55.229Z,99330.72
2022-09-28T04:34:41.840Z,99324.63
2022-09-28T04:37:11.612Z,99311.13
2022-09-28T04:39:42.248Z,99309.50
2022-09-28T04:42:13.660Z,99308.34
2022-09-28T04:44:43.747Z,99299.31
2022-09-28T04:47:10.992Z,99300.75
2022-09-28T04:49:56.815Z,99299.47
2022-09-28T04:52:31.854Z,99306.44
2022-09-28T04:54:59.191Z,99302.84
2022-09-28T04:57:27.342Z,99301.81
2022-09-28T04:59:55.229Z,99301.44
2022-09-28T05:02:22.636Z,99313.84
2022-09-28T05:05:13.156Z,99307.06
2022-09-28T05:08:09.419Z,99305.66
2022-09-28T05:10:40.284Z,99299.38
2022-09-28T05:13:09.151Z,99310.13
2022-09-28T05:15:38.631Z,99318.19
2022-09-28T05:18:07.162Z,99324.34
2022-09-28T05:20:46.127Z,99318.38
2022-09-28T05:23:15.390Z,99321.97
2022-09-28T05:25:45.301Z,99314.19
2022-09-28T05:28:28.074Z,99316.94
2022-09-28T05:31:15.744Z,99322.38
2022-09-28T05:34:12.572Z,99310.72
2022-09-28T05:36:42.652Z,99316.94
2022-09-28T05:39:09.958Z,99309.16
2022-09-28T05:41:37.254Z,99312.34
2022-09-28T05:44:05.504Z,99326.72
2022-09-28T05:46:32.755Z,99316.75
2022-09-28T05:49:01.872Z,99313.16
2022-09-28T05:51:29.285Z,99311.53
2022-09-28T05:54:00.724Z,99309.16
2022-09-28T05:56:31.519Z,99302.06
2022-09-28T05:58:58.930Z,99310.81
2022-09-28T06:01:29.802Z,99306.56
2022-09-28T06:04:02.288Z,99317.25
2022-09-28T06:06:30.222Z,99311.22
2022-09-28T06:08:57.449Z,99316.81
2022-09-28T06:11:44.967Z,99321.78
2022-09-28T06:14:23.928Z,99317.16
2022-09-28T06:16:53.966Z,99314.00
2022-09-28T06:19:21.826Z,99315.88
2022-09-28T06:22:07.991Z,99305.13
2022-09-28T06:24:43.772Z,99301.91
2022-09-28T06:27:11.083Z,99306.19
2022-09-28T06:29:38.317Z,99313.06
2022-09-28T06:32:07.349Z,99312.84
2022-09-28T06:34:36.039Z,99310.44
2022-09-28T06:37:04.592Z,99308.44
2022-09-28T06:39:32.296Z,99301.09
2022-09-28T06:42:03.224Z,99309.50
2022-09-28T06:44:50.635Z,99303.34
2022-09-28T06:47:38.201Z,99298.34
2022-09-28T06:50:17.270Z,99294.06
2022-09-28T06:53:06.942Z,99297.72
2022-09-28T06:55:57.417Z,99306.63
2022-09-28T06:58:27.541Z,99295.94
2022-09-28T07:01:00.504Z,99300.69
2022-09-28T07:03:33.185Z,99289.97
2022-09-28T07:06:21.089Z,99298.88
2022-09-28T07:09:24.067Z,99292.56
2022-09-28T07:12:13.459Z,99290.91
2022-09-28T07:15:04.979Z,99283.78
2022-09-28T07:17:39.347Z,99291.47
2022-09-28T07:20:18.850Z,99293.69
2022-09-28T07:22:48.316Z,99284.00
2022-09-28T07:25:20.354Z,99283.13
2022-09-28T07:28:02.630Z,99278.03
2022-09-28T07:30:57.895Z,99282.94
2022-09-28T07:33:45.771Z,99272.34
2022-09-28T07:36:20.867Z,99283.00
2022-09-28T07:38:48.522Z,99287.09
2022-09-28T07:41:22.093Z,99285.09
2022-09-28T07:43:52.010Z,99289.53
2022-09-28T07:46:21.305Z,99286.81
2022-09-28T07:48:56.191Z,99286.56
2022-09-28T07:51:35.084Z,99286.56
2022-09-28T07:54:21.028Z,99289.34
2022-09-28T07:57:07.020Z,99295.44
2022-09-28T07:59:53.681Z,99290.19
2022-09-28T08:02:41.346Z,99288.25
2022-09-28T08:05:10.655Z,99298.06
2022-09-28T08:07:38.301Z,99308.41
2022-09-28T08:10:09.045Z,99305.38
2022-09-28T08:12:59.152Z,99299.06
2022-09-28T08:15:40.192Z,99309.00
2022-09-28T08:18:16.911Z,99292.13
2022-09-28T08:21:03.868Z,99301.53
2022-09-28T08:23:31.831Z,99296.38
2022-09-28T08:25:59.502Z,99306.47
2022-09-28T08:28:27.588Z,99295.38
2022-09-28T08:31:01.606Z,99291.59
2022-09-28T08:33:31.824Z,99286.44
2022-09-28T08:36:34.418Z,99287.78
2022-09-28T08:39:02.541Z,99289.16
2022-09-28T08:42:02.226Z,99296.31
2022-09-28T08:44:52.314Z,99296.81
2022-09-28T08:48:45.685Z,99285.38
2022-09-28T08:51:45.730Z,99292.72
2022-09-28T08:54:41.128Z,99292.06
2022-09-28T08:57:33.889Z,99295.81
2022-09-28T09:00:05.361Z,99290.78
2022-09-28T09:02:39.701Z,99295.13
2022-09-28T09:05:24.183Z,99295.19
2022-09-28T09:08:14.239Z,99302.53
2022-09-28T09:10:50.572Z,99306.31
2022-09-28T09:13:46.478Z,99306.16
2022-09-28T09:16:42.099Z,99292.09
2022-09-28T09:20:05.089Z,99287.94
2022-09-28T09:23:04.322Z,99282.72
2022-09-28T09:25:42.342Z,99286.09
2022-09-28T09:28:50.336Z,99276.28
2022-09-28T09:31:43.095Z,99270.38
2022-09-28T09:34:43.813Z,99275.31
2022-09-28T09:38:22.005Z,99274.00
2022-09-28T09:41:27.965Z,99275.66
2022-09-28T09:44:13.969Z,99274.25
2022-09-28T09:47:13.056Z,99275.91
2022-09-28T09:50:11.291Z,99277.22
2022-09-28T09:53:02.641Z,99266.34
2022-09-28T09:55:36.389Z,99279.19
2022-09-28T09:58:34.699Z,99272.25
2022-09-28T10:01:35.674Z,99262.56
2022-09-28T10:04:32.028Z,99260.81
2022-09-28T10:07:06.873Z,99251.09
2022-09-28T10:09:41.194Z,99257.84
2022-09-28T10:12:24.432Z,99252.56
2022-09-28T10:14:53.074Z,99253.88
2022-09-28T10:17:26.717Z,99235.41
2022-09-28T10:20:37.012Z,99248.25
2022-09-28T10:23:27.083Z,99242.34
2022-09-28T10:26:00.552Z,99254.91
2022-09-28T10:28:51.917Z,99244.97
2022-09-28T10:31:46.497Z,99257.22
2022-09-28T10:34:27.790Z,99257.19
2022-09-28T10:37:05.484Z,99241.97
2022-09-28T10:39:55.912Z,99238.34
2022-09-28T10:42:31.636Z,99239.34
2022-09-28T10:45:23.842Z,99238.47
2022-09-28T10:47:51.240Z,99244.25
2022-09-28T10:50:28.402Z,99238.28
2022-09-28T10:53:20.780Z,99226.34
2022-09-28T10:56:22.715Z,99228.06
2022-09-28T10:58:59.085Z,99228.06
2022-09-28T11:01:41.758Z,99229.75
2022-09-28T11:04:21.670Z,99227.78
2022-09-28T11:06:50.132Z,99228.25
2022-09-28T11:09:32.530Z,99221.06
2022-09-28T11:12:14.222Z,99221.88
2022-09-28T11:14:46.729Z,99208.22
2022-09-28T11:17:25.856Z,99214.63
2022-09-28T11:19:54.911Z,99211.19
2022-09-28T11:22:26.179Z,99212.59
2022-09-28T11:25:22.022Z,99208.47
2022-09-28T11:27:52.440Z,99196.53
2022-09-28T11:30:25.797Z,99196.59
2022-09-28T11:33:22.613Z,99201.38
2022-09-28T11:36:19.004Z,99204.19
2022-09-28T11:39:01.437Z,99201.09
2022-09-28T11:41:54.328Z,99192.75
2022-09-28T11:44:41.408Z,99200.84
2022-09-28T11:47:40.194Z,99190.06
2022-09-28T11:50:41.601Z,99190.03
2022-09-28T11:53:36.037Z,99185.13
2022-09-28T11:56:18.810Z,99174.47
2022-09-28T11:58:50.861Z,99167.97
2022-09-28T12:01:35.539Z,99165.91
2022-09-28T12:04:38.075Z,99170.13
2022-09-28T12:07:19.300Z,99164.78
2022-09-28T12:10:00.950Z,99160.31
2022-09-28T12:12:37.234Z,99152.88
2022-09-28T12:15:19.805Z,99155.91
2022-09-28T12:17:52.734Z,99145.75
2022-09-28T12:20:27.372Z,99156.69
2022-09-28T12:23:11.515Z,99156.84
2022-09-28T12:25:49.288Z,99148.16
2022-09-28T12:28:42.117Z,99146.41
2022-09-28T12:31:21.474Z,99148.16
2022-09-28T12:33:51.938Z,99138.97
2022-09-28T12:37:03.658Z,99130.53
2022-09-28T12:39:58.424Z,99137.56
2022-09-28T12:42:39.148Z,99143.59
2022-09-28T12:45:06.362Z,99138.28
2022-09-28T12:48:01.119Z,99137.63
2022-09-28T12:51:00.143Z,99135.28
2022-09-28T12:54:04.041Z,99135.47
2022-09-28T12:56:41.558Z,99134.19
2022-09-28T12:59:20.936Z,99135.19
2022-09-28T13:02:00.373Z,99134.13
2022-09-28T13:04:45.574Z,99128.38
2022-09-28T13:07:29.735Z,99135.81
2022-09-28T13:10:16.697Z,99133.00
2022-09-28T13:13:12.646Z,99139.97
2022-09-28T13:15:43.337Z,99131.41
2022-09-28T13:18:27.217Z,99128.41
2022-09-28T13:21:17.613Z,99137.34
2022-09-28T13:23:47.554Z,99127.59
2022-09-28T13:26:37.086Z,99128.06
2022-09-28T13:29:14.595Z,99116.72
2022-09-28T13:31:49.476Z,99125.09
2022-09-28T13:34:22.387Z,99104.66
2022-09-28T13:37:07.720Z,99124.13
2022-09-28T13:39:51.077Z,99119.66
2022-09-28T13:42:35.929Z,99108.63
2022-09-28T13:45:21.960Z,99114.38
2022-09-28T13:47:56.020Z,99105.97
2022-09-28T13:51:04.974Z,99098.22
2022-09-28T13:54:04.368Z,99095.44
2022-09-28T13:56:48.271Z,99090.28
2022-09-28T13:59:27.742Z,99081.88
2022-09-28T14:02:17.586Z,99080.25
2022-09-28T14:04:57.771Z,99084.22
2022-09-28T14:10:20.867Z,99089.44
2022-09-28T14:12:53.000Z,99079.88
2022-09-28T14:15:29.608Z,99078.88
2022-09-28T14:18:20.755Z,99068.03
2022-09-28T14:21:05.519Z,99077.56
2022-09-28T14:24:11.161Z,99077.56
2022-09-28T14:27:00.426Z,99085.34
2022-09-28T14:29:34.505Z,99084.84
2022-09-28T14:32:07.889Z,99081.22
2022-09-28T14:34:46.633Z,99087.50
2022-09-28T14:37:46.493Z,99077.91
2022-09-28T14:40:48.693Z,99095.44
2022-09-28T14:43:33.670Z,99096.38
2022-09-28T14:46:10.878Z,99095.88
2022-09-28T14:48:54.841Z,99089.44
2022-09-28T14:51:25.411Z,99082.22
2022-09-28T14:53:54.731Z,99076.94
2022-09-28T14:56:22.104Z,99062.41
2022-09-28T14:58:56.244Z,99076.22
2022-09-28T15:01:25.098Z,99072.59
2022-09-28T15:03:56.522Z,99077.25
2022-09-28T15:06:24.969Z,99075.31
2022-09-28T15:08:52.829Z,99081.88
2022-09-28T15:11:23.395Z,99083.88
2022-09-28T15:14:04.392Z,99077.63
2022-09-28T15:16:32.360Z,99079.81
2022-09-28T15:19:25.259Z,99089.16
2022-09-28T15:21:52.880Z,99079.47
2022-09-28T15:24:34.634Z,99073.69
2022-09-28T15:27:15.375Z,99067.94
2022-09-28T15:29:57.245Z,99064.16
2022-09-28T15:32:26.124Z,99066.78
2022-09-28T15:34:54.674Z,99079.00
2022-09-28T15:37:26.286Z,99065.47
2022-09-28T15:39:55.770Z,99064.50
2022-09-28T15:42:23.103Z,99053.25
2022-09-28T15:45:13.742Z,99059.84
2022-09-28T15:47:44.858Z,99054.56
2022-09-28T15:50:33.177Z,99051.28
2022-09-28T15:53:04.518Z,99058.53
2022-09-28T15:55:39.823Z,99064.31
2022-09-28T15:58:22.648Z,99072.75
2022-09-28T16:01:12.001Z,99067.78
2022-09-28T16:03:39.610Z,99066.47
2022-09-28T16:06:09.448Z,99075.22
2022-09-28T16:08:38.545Z,99070.28
2022-09-28T16:11:35.585Z,99078.34
2022-09-28T16:14:08.835Z,99070.94
2022-09-28T16:16:47.494Z,99073.09
2022-09-28T16:19:37.844Z,99076.88
2022-09-28T16:22:18.722Z,99064.50
2022-09-28T16:24:55.790Z,99065.66
2022-09-28T16:27:28.273Z,99054.75
2022-09-28T16:30:21.717Z,99063.16
2022-09-28T16:32:53.462Z,99054.91
2022-09-28T16:35:27.179Z,99058.38
2022-09-28T16:38:00.905Z,99070.19
2022-09-28T16:40:29.123Z,99075.94
2022-09-28T16:43:00.108Z,99078.56
2022-09-28T16:45:28.467Z,99065.69
2022-09-28T16:47:57.419Z,99066.06
2022-09-28T16:50:25.844Z,99059.44
2022-09-28T16:53:19.126Z,99063.72
2022-09-28T16:55:48.517Z,99053.47
2022-09-28T16:58:15.997Z,99058.06
2022-09-28T17:00:43.458Z,99052.09
2022-09-28T17:03:18.453Z,99062.97
2022-09-28T17:05:47.946Z,99052.44
2022-09-28T17:08:19.842Z,99054.94
2022-09-28T17:13:45.138Z,99047.38
2022-09-28T17:16:14.393Z,99050.38
2022-09-28T17:19:33.643Z,99050.31
2022-09-28T17:22:00.861Z,99041.25
2022-09-28T17:24:28.102Z,99050.91
2022-09-28T17:26:55.793Z,99045.13
2022-09-28T17:29:23.775Z,99046.31
2022-09-28T17:31:51.201Z,99043.22
2022-09-28T17:34:19.990Z,99052.25
2022-09-28T17:36:47.435Z,99056.88
2022-09-28T17:39:17.691Z,99060.38
2022-09-28T17:41:48.678Z,99051.44
2022-09-28T17:44:21.416Z,99036.19
2022-09-28T17:46:51.264Z,99045.03
2022-09-28T17:49:20.336Z,99034.69
2022-09-28T17:51:53.192Z,99047.91
2022-09-28T17:54:22.826Z,99034.84
2022-09-28T17:56:50.704Z,99039.84
2022-09-28T17:59:26.622Z,99036.00
2022-09-28T18:02:00.410Z,99058.91
2022-09-28T18:04:51.353Z,99048.84
2022-09-28T18:07:20.036Z,99056.66
2022-09-28T18:09:48.226Z,99049.78
2022-09-28T18:12:33.503Z,99068.16
2022-09-28T18:15:01.690Z,99049.22
2022-09-28T18:17:29.557Z,99062.09
2022-09-28T18:20:01.633Z,99046.78
2022-09-28T18:22:29.560Z,99053.72
2022-09-28T18:24:56.999Z,99049.81
2022-09-28T18:27:27.557Z,99032.66
2022-09-28T18:30:02.511Z,99034.06
2022-09-28T18:32:32.094Z,99039.31
2022-09-28T18:35:03.216Z,99041.09
2022-09-28T18:37:40.915Z,99035.56
2022-09-28T18:40:16.120Z,99052.22
2022-09-28T18:45:42.948Z,99063.78
2022-09-28T18:51:26.222Z,99063.69
2022-09-28T18:58:58.355Z,99025.56
2022-09-28T19:01:47.339Z,99019.09
2022-09-28T19:04:25.857Z,99022.31
2022-09-28T19:06:54.558Z,99038.19
2022-09-28T19:09:24.769Z,99025.41
2022-09-28T19:16:29.026Z,99032.63
2022-09-28T19:19:15.127Z,99048.34
2022-09-28T19:22:40.208Z,99054.44
2022-09-28T19:25:12.226Z,99046.97
2022-09-28T19:28:39.494Z,99050.31
2022-09-28T19:43:27.579Z,99041.16
2022-09-28T19:45:56.212Z,99050.81
2022-09-28T19:48:30.333Z,99056.44
2022-09-28T19:51:05.783Z,99049.13
2022-09-28T19:57:11.780Z,99037.81
2022-09-28T20:13:45.249Z,99034.09
2022-09-28T20:16:17.585Z,99042.22
2022-09-28T20:18:52.027Z,99041.53
2022-09-28T20:21:25.959Z,99027.03
2022-09-28T20:23:56.271Z,99048.59
2022-09-28T20:26:29.024Z,99040.56
2022-09-28T20:29:02.052Z,99018.47
2022-09-28T20:31:32.384Z,99027.28
2022-09-28T20:34:02.586Z,99022.72
2022-09-28T20:36:35.263Z,99014.72
2022-09-28T20:39:06.529Z,99009.66
2022-09-28T20:44:37.615Z,99009.31
2022-09-28T20:49:55.737Z,99006.84
2022-09-28T20:52:27.248Z,99024.47
2022-09-28T20:55:05.923Z,99009.31
2022-09-28T20:57:40.645Z,99009.63
2022-09-28T21:00:23.199Z,99010.97
2022-09-28T21:02:59.423Z,99012.38
2022-09-28T21:05:36.679Z,99007.25
2022-09-28T21:08:08.911Z,99011.75
2022-09-28T21:10:37.484Z,99012.56
2022-09-28T21:13:06.399Z,99014.25
2022-09-28T21:15:42.860Z,99018.22
2022-09-28T21:18:14.010Z,99024.16
2022-09-28T21:20:51.790Z,99018.75
2022-09-28T21:23:24.753Z,99027.19
2022-09-28T21:26:09.589Z,99015.81
2022-09-28T21:28:39.409Z,99005.13
2022-09-28T21:31:11.440Z,99006.91
2022-09-28T21:33:39.119Z,99025.28
2022-09-28T21:36:10.095Z,99005.03
2022-09-28T21:38:42.980Z,99001.03
2022-09-28T21:41:11.626Z,99000.44
2022-09-28T21:43:41.764Z,98995.06
2022-09-28T21:46:11.710Z,99008.75
2022-09-28T21:48:39.751Z,99006.22
2022-09-28T21:51:13.139Z,99006.44
2022-09-28T21:53:43.479Z,99007.84
2022-09-28T21:56:13.138Z,99006.22
2022-09-28T21:58:41.692Z,99016.72
2022-09-28T22:01:15.835Z,99000.97
2022-09-28T22:03:47.131Z,99002.38
2022-09-28T22:06:18.772Z,98990.53
2022-09-28T22:08:47.975Z,99000.44
2022-09-28T22:11:17.592Z,98993.31
2022-09-28T22:13:47.343Z,99008.75
2022-09-28T22:16:18.643Z,98994.19
2022-09-28T22:18:48.802Z,99011.09
2022-09-28T22:21:22.795Z,98996.41
2022-09-28T22:23:53.601Z,98998.59
2022-09-28T22:26:27.238Z,99014.66
2022-09-28T22:29:04.781Z,99010.31
2022-09-28T22:31:39.815Z,99018.97
2022-09-28T22:34:10.874Z,99034.16
2022-09-28T22:36:42.580Z,99029.44
2022-09-28T22:39:16.680Z,99032.00
2022-09-28T22:47:45.715Z,99011.34
2022-09-28T22:50:17.467Z,99001.63
2022-09-28T22:52:51.086Z,99004.69
2022-09-28T22:55:25.520Z,99024.72
2022-09-28T22:57:58.664Z,98999.22
2022-09-28T23:00:29.021Z,98992.56
2022-09-28T23:03:01.313Z,98999.19
2022-09-28T23:05:31.169Z,98982.59
2022-09-28T23:08:00.555Z,98980.38
2022-09-28T23:10:30.349Z,98994.06
2022-09-28T23:13:01.382Z,99003.13
2022-09-28T23:15:38.587Z,99002.03
2022-09-28T23:18:11.649Z,98994.25
2022-09-28T23:20:41.520Z,98990.56
2022-09-28T23:23:11.553Z,99003.69
2022-09-28T23:32:01.625Z,99021.94
2022-09-28T23:34:32.446Z,99006.84
2022-09-28T23:37:05.391Z,99002.75
2022-09-28T23:39:36.270Z,98993.53
2022-09-28T23:42:09.608Z,99011.09
2022-09-28T23:44:39.136Z,98998.72
2022-09-28T23:47:11.709Z,98987.00
2022-09-28T23:49:39.951Z,99000.53
2022-09-28T23:52:08.343Z,99016.03
2022-09-28T23:54:36.501Z,98986.78
2022-09-28T23:57:05.683Z,98994.50
2022-09-28T23:59:33.947Z,98995.13
